createdAt,value
2022-08-03T00:02:52.695Z,100874.52
2022-08-03T00:07:59.203Z,100872.89
2022-08-03T00:13:06.093Z,100872.73
2022-08-03T00:18:12.118Z,100874.00
2022-08-03T00:23:17.996Z,100877.81
2022-08-03T00:28:24.097Z,100879.41
2022-08-03T00:33:58.333Z,100877.12
2022-08-03T00:39:00.330Z,100878.91
2022-08-03T00:44:06.756Z,100882.34
2022-08-03T00:49:13.069Z,100877.77
2022-08-03T00:54:20.194Z,100884.55
2022-08-03T00:59:26.116Z,100887.08
2022-08-03T01:04:32.046Z,100884.13
2022-08-03T01:09:46.600Z,100881.77
2022-08-03T01:14:58.594Z,100888.13
2022-08-03T01:20:08.057Z,100885.81
2022-08-03T01:25:24.795Z,100892.05
2022-08-03T01:30:33.714Z,100888.26
2022-08-03T01:35:47.118Z,100886.52
2022-08-03T01:40:56.269Z,100887.20
2022-08-03T01:46:03.215Z,100888.42
2022-08-03T01:51:10.985Z,100886.65
2022-08-03T01:56:19.666Z,100880.42
2022-08-03T02:01:27.390Z,100879.37
2022-08-03T02:07:01.711Z,100873.14
2022-08-03T02:12:11.696Z,100874.34
2022-08-03T02:17:39.335Z,100865.86
2022-08-03T02:22:46.572Z,100863.05
2022-08-03T02:27:55.578Z,100862.95
2022-08-03T02:33:03.126Z,100861.02
2022-08-03T02:38:11.728Z,100862.99
2022-08-03T02:43:22.018Z,100866.88
2022-08-03T02:48:32.771Z,100866.45
2022-08-03T02:53:39.425Z,100870.06
2022-08-03T02:58:47.656Z,100870.09
2022-08-03T03:03:54.937Z,100870.06
2022-08-03T03:09:02.716Z,100876.04
2022-08-03T03:14:10.206Z,100878.84
2022-08-03T03:19:17.744Z,100880.98
2022-08-03T03:24:24.178Z,100883.05
2022-08-03T03:29:30.500Z,100883.41
2022-08-03T03:34:45.943Z,100886.55
2022-08-03T03:39:53.068Z,100888.17
2022-08-03T03:44:59.475Z,100881.86
2022-08-03T03:50:06.945Z,100879.70
2022-08-03T03:55:18.028Z,100882.08
2022-08-03T04:00:25.011Z,100881.02
2022-08-03T04:05:50.054Z,100890.92
2022-08-03T04:11:07.470Z,100894.48
2022-08-03T04:16:15.820Z,100898.14
2022-08-03T04:21:24.206Z,100900.90
2022-08-03T04:26:34.427Z,100904.06
2022-08-03T04:31:42.103Z,100914.41
2022-08-03T04:36:52.820Z,100917.06
2022-08-03T04:42:08.407Z,100919.39
2022-08-03T04:47:15.810Z,100923.02
2022-08-03T04:52:22.053Z,100922.04
2022-08-03T04:57:28.208Z,100924.48
2022-08-03T05:02:35.074Z,100922.91
2022-08-03T05:07:41.010Z,100923.19
2022-08-03T05:12:51.670Z,100928.23
2022-08-03T05:17:57.639Z,100934.62
2022-08-03T05:23:04.113Z,100938.79
2022-08-03T05:28:09.878Z,100940.59
2022-08-03T05:33:16.133Z,100940.73
2022-08-03T05:38:28.029Z,100952.23
2022-08-03T05:43:39.575Z,100960.35
2022-08-03T05:48:45.566Z,100957.05
2022-08-03T05:53:52.321Z,100965.61
2022-08-03T05:59:07.243Z,100962.85
2022-08-03T06:04:22.727Z,100963.86
2022-08-03T06:10:34.002Z,100965.00
2022-08-03T06:14:56.040Z,100971.55
2022-08-03T06:20:02.483Z,100972.58
2022-08-03T06:25:12.794Z,100972.20
2022-08-03T06:30:21.238Z,100973.38
2022-08-03T06:35:28.152Z,100970.47
2022-08-03T06:40:40.047Z,100972.25
2022-08-03T06:45:47.691Z,100975.80
2022-08-03T06:50:53.598Z,100978.14
2022-08-03T06:55:59.635Z,100981.63
2022-08-03T07:01:05.723Z,100979.95
2022-08-03T07:06:11.816Z,100975.99
2022-08-03T07:11:17.754Z,100982.44
2022-08-03T07:16:23.717Z,100987.00
2022-08-03T07:21:29.659Z,100989.55
2022-08-03T07:26:35.499Z,100989.64
2022-08-03T07:31:42.236Z,100983.98
2022-08-03T07:36:48.060Z,100986.41
2022-08-03T07:41:53.975Z,100988.28
2022-08-03T07:47:03.227Z,100992.59
2022-08-03T07:52:28.598Z,100992.84
2022-08-03T07:57:35.653Z,100995.20
2022-08-03T08:02:41.888Z,100992.89
2022-08-03T08:07:51.072Z,100995.77
2022-08-03T08:12:57.931Z,100998.08
2022-08-03T08:18:04.116Z,101000.02
2022-08-03T08:23:37.644Z,100996.63
2022-08-03T08:28:36.368Z,101002.09
2022-08-03T08:34:03.087Z,101003.63
2022-08-03T08:39:08.293Z,101003.61
2022-08-03T08:44:14.469Z,101005.18
2022-08-03T08:49:28.080Z,101009.08
2022-08-03T08:54:35.140Z,101003.05
2022-08-03T08:59:47.754Z,101001.48
2022-08-03T09:04:55.634Z,101001.02
2022-08-03T09:10:11.789Z,100994.23
2022-08-03T09:15:22.461Z,100996.33
2022-08-03T09:20:30.821Z,100993.88
2022-08-03T09:25:39.057Z,100994.39
2022-08-03T09:30:58.192Z,100992.66
2022-08-03T09:36:04.590Z,100994.13
2022-08-03T09:41:19.913Z,100989.30
2022-08-03T09:46:25.826Z,100993.58
2022-08-03T09:51:33.283Z,100991.13
2022-08-03T09:56:58.772Z,100985.41
2022-08-03T10:02:04.957Z,100981.88
2022-08-03T10:07:12.194Z,100981.39
2022-08-03T10:12:18.263Z,100978.51
2022-08-03T10:17:24.603Z,100981.30
2022-08-03T10:22:34.047Z,100974.35
2022-08-03T10:27:41.514Z,100975.48
2022-08-03T10:32:52.558Z,100978.89
2022-08-03T10:38:02.075Z,100975.20
2022-08-03T10:43:13.279Z,100978.14
2022-08-03T10:48:20.794Z,100968.86
2022-08-03T10:53:40.451Z,100973.48
2022-08-03T10:58:57.393Z,100973.82
2022-08-03T11:04:21.633Z,100975.17
2022-08-03T11:09:40.782Z,100969.27
2022-08-03T11:14:50.151Z,100971.44
2022-08-03T11:19:56.822Z,100968.14
2022-08-03T11:25:05.262Z,100965.14
2022-08-03T11:30:27.500Z,100961.20
2022-08-03T11:35:43.827Z,100954.16
2022-08-03T11:40:51.450Z,100953.51
2022-08-03T11:46:02.339Z,100948.98
2022-08-03T11:51:20.259Z,100942.73
2022-08-03T11:56:26.732Z,100944.50
2022-08-03T12:01:32.980Z,100944.65
2022-08-03T12:06:55.451Z,100935.91
2022-08-03T12:12:01.639Z,100932.69
2022-08-03T12:17:07.495Z,100930.86
2022-08-03T12:22:16.829Z,100927.64
2022-08-03T12:27:29.757Z,100922.73
2022-08-03T12:32:35.876Z,100926.63
2022-08-03T12:37:48.323Z,100922.08
2022-08-03T12:42:54.505Z,100922.99
2022-08-03T12:48:02.325Z,100911.75
2022-08-03T12:53:10.606Z,100906.85
2022-08-03T12:58:33.799Z,100906.95
2022-08-03T13:03:49.588Z,100903.47
2022-08-03T13:09:07.801Z,100899.29
2022-08-03T13:14:19.787Z,100890.25
2022-08-03T13:19:26.266Z,100888.94
2022-08-03T13:24:33.454Z,100890.09
2022-08-03T13:29:39.935Z,100887.34
2022-08-03T13:34:45.971Z,100883.15
2022-08-03T13:39:58.025Z,100879.29
2022-08-03T13:45:08.865Z,100874.92
2022-08-03T13:50:15.347Z,100876.06
2022-08-03T13:55:21.308Z,100875.77
2022-08-03T14:00:29.483Z,100876.59
2022-08-03T14:05:37.141Z,100872.31
2022-08-03T14:10:44.921Z,100870.16
2022-08-03T14:15:51.980Z,100862.90
2022-08-03T14:21:03.411Z,100860.86
2022-08-03T14:26:12.077Z,100859.17
2022-08-03T14:32:09.519Z,100849.30
2022-08-03T14:36:44.309Z,100848.56
2022-08-03T14:41:50.170Z,100847.88
2022-08-03T14:46:56.034Z,100848.11
2022-08-03T14:52:02.689Z,100845.02
2022-08-03T14:57:08.555Z,100844.64
2022-08-03T15:02:23.339Z,100843.01
2022-08-03T15:07:30.033Z,100841.16
2022-08-03T15:12:36.174Z,100842.67
2022-08-03T15:17:42.862Z,100841.47
2022-08-03T15:22:48.851Z,100836.39
2022-08-03T15:28:03.733Z,100836.94
2022-08-03T15:33:10.934Z,100837.67
2022-08-03T15:38:17.673Z,100836.64
2022-08-03T15:43:23.833Z,100831.66
2022-08-03T15:48:29.867Z,100826.94
2022-08-03T15:53:36.528Z,100823.10
2022-08-03T15:59:09.241Z,100818.61
2022-08-03T16:04:08.408Z,100816.19
2022-08-03T16:09:23.102Z,100807.38
2022-08-03T16:14:51.277Z,100802.65
2022-08-03T16:19:58.495Z,100804.52
2022-08-03T16:25:04.830Z,100797.78
2022-08-03T16:30:20.064Z,100796.20
2022-08-03T16:35:26.090Z,100798.71
2022-08-03T16:40:32.783Z,100795.73
2022-08-03T16:45:38.921Z,100794.19
2022-08-03T16:50:45.251Z,100794.73
2022-08-03T16:55:54.334Z,100794.27
2022-08-03T17:01:00.408Z,100798.56
2022-08-03T17:06:17.515Z,100799.62
2022-08-03T17:11:28.075Z,100802.50
2022-08-03T17:16:36.057Z,100803.67
2022-08-03T17:21:51.539Z,100807.09
2022-08-03T17:27:00.680Z,100808.48
2022-08-03T17:32:10.656Z,100814.60
2022-08-03T17:37:49.840Z,100814.81
2022-08-03T17:42:50.532Z,100826.05
2022-08-03T17:47:57.160Z,100834.38
2022-08-03T17:53:15.681Z,100839.58
2022-08-03T17:58:43.899Z,100849.73
2022-08-03T18:03:58.657Z,100852.15
2022-08-03T18:10:05.824Z,100858.58
2022-08-03T18:14:43.286Z,100864.61
2022-08-03T18:20:11.684Z,100869.88
2022-08-03T18:25:38.295Z,100876.23
2022-08-03T18:30:53.451Z,100879.63
2022-08-03T18:36:04.049Z,100882.45
2022-08-03T18:41:15.146Z,100883.35
2022-08-03T18:46:34.265Z,100893.36
2022-08-03T18:51:46.994Z,100897.98
2022-08-03T18:56:55.953Z,100904.25
2022-08-03T19:02:09.130Z,100912.15
2022-08-03T19:07:24.729Z,100909.59
2022-08-03T19:12:39.971Z,100908.66
2022-08-03T19:17:53.195Z,100910.34
2022-08-03T19:23:00.988Z,100912.05
2022-08-03T19:28:08.874Z,100912.67
2022-08-03T19:33:15.594Z,100910.42
2022-08-03T19:38:29.341Z,100914.30
2022-08-03T19:43:52.809Z,100914.43
2022-08-03T19:49:04.625Z,100912.95
2022-08-03T19:54:29.339Z,100913.59
2022-08-03T19:59:50.392Z,100915.28
2022-08-03T20:04:57.797Z,100912.69
2022-08-03T20:10:09.233Z,100916.49
2022-08-03T20:15:18.166Z,100920.52
2022-08-03T20:20:32.223Z,100916.52
2022-08-03T20:25:57.198Z,100917.50
2022-08-03T20:31:05.422Z,100917.45
2022-08-03T20:36:13.047Z,100918.70
2022-08-03T20:41:21.890Z,100924.60
2022-08-03T20:46:32.716Z,100917.26
2022-08-03T20:51:49.646Z,100920.23
2022-08-03T20:57:00.354Z,100922.55
2022-08-03T21:02:06.608Z,100925.86
2022-08-03T21:07:19.206Z,100929.70
2022-08-03T21:12:35.683Z,100932.77
2022-08-03T21:17:47.477Z,100931.23
2022-08-03T21:22:56.202Z,100936.15
2022-08-03T21:28:05.911Z,100940.05
2022-08-03T21:33:12.177Z,100947.88
2022-08-03T21:38:29.924Z,100946.33
2022-08-03T21:43:36.552Z,100946.83
2022-08-03T21:48:44.822Z,100945.39
2022-08-03T21:54:00.379Z,100948.02
2022-08-03T21:59:17.367Z,100950.68
2022-08-03T22:04:50.831Z,100955.13
2022-08-03T22:09:52.239Z,100958.31
2022-08-03T22:15:01.956Z,100956.13
2022-08-03T22:20:11.102Z,100954.96
2022-08-03T22:25:18.196Z,100950.48
2022-08-03T22:30:24.139Z,100950.73
2022-08-03T22:35:31.565Z,100952.33
2022-08-03T22:40:39.102Z,100951.67
2022-08-03T22:46:09.831Z,100953.11
2022-08-03T22:51:15.366Z,100953.64
2022-08-03T22:56:22.126Z,100954.52
2022-08-03T23:01:32.611Z,100949.37
2022-08-03T23:06:41.357Z,100945.92
2022-08-03T23:11:48.382Z,100946.95
2022-08-03T23:16:56.006Z,100950.71
2022-08-03T23:22:04.084Z,100943.80
2022-08-03T23:27:11.793Z,100938.95
2022-08-03T23:32:21.423Z,100941.59
2022-08-03T23:37:28.246Z,100939.92
2022-08-03T23:42:35.034Z,100945.08
2022-08-03T23:47:46.968Z,100944.55
2022-08-03T23:53:08.300Z,100939.17
2022-08-03T23:58:25.029Z,100933.50
